Terminal Aerodrome Forecast
Issued by NWS Wilmington, OH

Current Version | Previous Version | Graphics & Text | Print | Product List | Glossary On
Versions: 1 2 3 4 5 6 7 8 9 10 11 12 13 14 15 16 17 18 19 20 21 22 23
000
FTUS41 KILN 301100
TAFILN
TAF
KILN 301126Z 3012/0112 23004KT 4SM BR OVC004
     FM301300 24010KT 5SM HZ BKN015
     FM301500 25012KT P6SM VCTS BKN040CB
      TEMPO 3018/3022 25015G22KT 3SM TSRA BR OVC020CB
     FM010000 26007KT P6SM SCT050 SCT100
     FM010900 29005KT 4SM BR FEW050=

USA.gov is the U.S. government's official web portal to all federal, state and local government web resources and services.